»·PEaware :: RSP216 KTEX-KASE

RSP216 :: KTEX-KASE

FLIGHT INFORMATION

Flight Status: Arrived
Operator: Unknown
More flights by this operator :: More flights under this callsign
Pilot: Tomas M. (4063)
Aircraft: CESSNA 550 CITATION 2/S2/BRAVO
(C550)
More flights by this aircraft type
Origin: KTEX Telluride Regl
United States
Destination: KASE Aspen-Pitkin Co/Sardy
United States
More flights between these airports :: More routes between these airports
Route: ETL LOYYD SKIER DBL
File this flight plan on PilotEdge
Remarks:
Altitude:
(Current/Filed)
25,000ft
Speed:
(Current/Filed)
356kts
Departed: 26-Sep-23 04:56 PM
Arrived: 26-Sep-23 05:34 PM
Distance/Time
Traveled:
90nm/0:38
Distance/Time
To Go:
Arrived

Flight Plot

Page will automatically refresh every two minutes.

Flight plan parsing failed; only flown route is shown


Map Options




Map Legend


Flown Route
Filed Route
Departure Airport
Arrival Airport
Navaid (VOR, NDB)
Fix

Horizontal Profiles

Position Reports

Time Latitude Longitude Heading Altitude Ground
Speed
26-Sep-23 16:46 37.953865 -107.901251 204 9068ft 0kts
26-Sep-23 16:47 37.953865 -107.901251 204 9068ft 0kts
26-Sep-23 16:48 37.953865 -107.901251 204 9068ft 0kts
26-Sep-23 16:49 37.953865 -107.901251 204 9068ft 0kts
26-Sep-23 16:50 37.953865 -107.901251 204 9068ft 0kts
26-Sep-23 16:51 37.953865 -107.901251 204 9068ft 0kts
26-Sep-23 16:52 37.953806 -107.901285 204 9066ft 0kts
26-Sep-23 16:53 37.952947 -107.899259 105 9073ft 9kts
26-Sep-23 16:54 37.951339 -107.897021 258 9080ft 8kts
26-Sep-23 16:55 37.954872 -107.913760 285 9134ft 125kts
26-Sep-23 16:56 37.965076 -107.962415 284 10769ft 170kts
26-Sep-23 16:57 37.981735 -108.033424 286 11544ft 255kts
26-Sep-23 16:58 38.022692 -108.106343 349 13049ft 279kts
26-Sep-23 16:59 38.095575 -108.072827 26 14646ft 287kts
26-Sep-23 17:00 38.167950 -108.027566 26 16193ft 289kts
26-Sep-23 17:01 38.239251 -107.983318 26 17709ft 290kts
26-Sep-23 17:02 38.311913 -107.938274 25 19253ft 294kts
26-Sep-23 17:03 38.385424 -107.892560 24 20876ft 292kts
26-Sep-23 17:04 38.458862 -107.846824 23 22305ft 297kts
26-Sep-23 17:05 38.533501 -107.800266 23 23614ft 301kts
26-Sep-23 17:06 38.609419 -107.752775 23 24685ft 309kts
26-Sep-23 17:07 38.687981 -107.703570 23 25238ft 327kts
26-Sep-23 17:08 38.772663 -107.650428 23 25232ft 349kts
26-Sep-23 17:09 38.861160 -107.594524 23 25225ft 360kts
26-Sep-23 17:10 38.951355 -107.537369 23 25224ft 365kts
26-Sep-23 17:11 39.042292 -107.479589 23 25229ft 367kts
26-Sep-23 17:12 39.132335 -107.417631 37 25260ft 370kts
26-Sep-23 17:13 39.179505 -107.296229 76 24221ft 401kts
26-Sep-23 17:14 39.201241 -107.164005 77 23009ft 356kts
26-Sep-23 17:15 39.221583 -107.041541 76 21809ft 346kts
26-Sep-23 17:16 39.242312 -106.921491 76 20609ft 341kts
26-Sep-23 17:17 39.263522 -106.802775 76 19464ft 342kts
26-Sep-23 17:18 39.329641 -106.738111 0 18395ft 332kts
26-Sep-23 17:19 39.422732 -106.736282 359 17594ft 336kts
26-Sep-23 17:20 39.509537 -106.734579 359 16787ft 289kts
26-Sep-23 17:21 39.588018 -106.732727 359 16068ft 281kts
26-Sep-23 17:22 39.641695 -106.678821 99 15577ft 289kts
26-Sep-23 17:23 39.582709 -106.656916 231 15094ft 272kts
26-Sep-23 17:24 39.534708 -106.732607 230 14604ft 273kts
26-Sep-23 17:25 39.485985 -106.809329 231 14130ft 286kts
26-Sep-23 17:26 39.441135 -106.882556 233 14110ft 221kts
26-Sep-23 17:27 39.414443 -106.956139 247 13465ft 216kts
26-Sep-23 17:28 39.373232 -106.942734 144 13029ft 188kts
26-Sep-23 17:29 39.327468 -106.918641 162 12024ft 154kts
26-Sep-23 17:30 39.292992 -106.900877 165 10345ft 128kts
26-Sep-23 17:31 39.260896 -106.887128 159 8607ft 113kts
26-Sep-23 17:32 39.231656 -106.872948 157 7874ft 109kts
26-Sep-23 17:33 39.223354 -106.867916 71 7842ft 0kts
26-Sep-23 17:34 39.223255 -106.867251 244 7842ft 0kts
26-Sep-23 17:35 39.223255 -106.867251 244 7842ft 0kts

Navigation Log

Ident Type
Flight plan parsing failed, navigation log unavailable